Time;durP1;ratioP1;P1;durP2;ratioP2;P2;SDS_P1;SDS_P2;PMS_P1;PMS_P2;Temp;Humidity;BMP_temperature;BMP_pressure;BME280_temperature;BME280_humidity;BME280_pressure;Samples;Min_cycle;Max_cycle;Signal;HPM_P1;HPM_P2
2023/12/04 00:02:14;;;;;;;3.33;2.67;;;8.10;99.90;;;;;;5071766;28;20491;-68
2023/12/04 00:04:40;;;;;;;3.33;2.95;;;8.10;99.90;;;;;;5070623;28;20029;-67
2023/12/04 00:07:05;;;;;;;3.42;2.80;;;8.10;99.90;;;;;;5071119;28;20029;-66
2023/12/04 00:09:31;;;;;;;3.40;3.10;;;8.20;99.90;;;;;;5071173;28;20028;-68
2023/12/04 00:11:57;;;;;;;3.13;2.70;;;8.10;99.90;;;;;;5073087;28;20024;-68
2023/12/04 00:14:23;;;;;;;3.50;3.00;;;8.10;99.90;;;;;;5074349;28;20502;-68
2023/12/04 00:16:48;;;;;;;3.47;2.72;;;8.00;99.90;;;;;;5074761;28;20107;-68
2023/12/04 00:19:14;;;;;;;2.80;2.50;;;7.80;99.90;;;;;;5075008;28;20086;-69
2023/12/04 00:21:39;;;;;;;4.68;2.70;;;7.70;99.90;;;;;;5074704;28;20039;-68
2023/12/04 00:24:05;;;;;;;4.05;3.00;;;7.70;99.90;;;;;;5074397;28;20486;-67
2023/12/04 00:26:31;;;;;;;3.10;2.78;;;7.60;99.90;;;;;;5074640;28;20048;-68
2023/12/04 00:28:56;;;;;;;3.08;2.78;;;7.60;99.90;;;;;;5074535;28;20075;-68
2023/12/04 00:31:22;;;;;;;3.42;2.78;;;7.60;99.90;;;;;;5074894;28;20025;-68
2023/12/04 00:33:48;;;;;;;3.28;2.97;;;7.60;99.90;;;;;;5074346;28;20074;-68
2023/12/04 00:36:13;;;;;;;3.83;2.92;;;7.50;99.90;;;;;;5074496;28;20111;-68
2023/12/04 00:38:39;;;;;;;3.10;2.80;;;7.50;99.90;;;;;;5073958;28;20037;-67
2023/12/04 00:41:05;;;;;;;3.83;3.00;;;7.50;99.90;;;;;;5074820;28;20025;-68
2023/12/04 00:43:31;;;;;;;3.00;2.80;;;7.50;99.90;;;;;;5074040;28;20442;-68
2023/12/04 00:45:57;;;;;;;4.15;2.97;;;7.50;99.90;;;;;;5074183;28;20410;-68
2023/12/04 00:48:22;;;;;;;3.25;2.70;;;7.50;99.90;;;;;;5073531;28;20502;-68
2023/12/04 00:50:48;;;;;;;3.22;2.70;;;7.50;99.90;;;;;;5073528;28;20029;-67
2023/12/04 00:53:14;;;;;;;3.38;2.60;;;7.60;99.90;;;;;;5073977;28;20479;-67
2023/12/04 00:55:39;;;;;;;2.85;2.60;;;7.60;99.90;;;;;;5073412;28;20032;-68
2023/12/04 00:58:05;;;;;;;3.78;2.78;;;7.60;99.90;;;;;;5074424;28;20029;-66
2023/12/04 01:00:31;;;;;;;2.88;2.63;;;7.60;99.90;;;;;;5074069;28;20170;-68
2023/12/04 01:02:56;;;;;;;3.35;2.60;;;7.70;99.90;;;;;;5073671;28;20032;-68
2023/12/04 01:05:22;;;;;;;3.45;3.10;;;7.70;99.90;;;;;;5073594;28;20067;-67
2023/12/04 01:07:48;;;;;;;3.25;2.60;;;7.70;99.90;;;;;;5073798;28;20017;-68
2023/12/04 01:10:13;;;;;;;3.08;2.72;;;7.80;99.90;;;;;;5074218;28;20032;-68
2023/12/04 01:12:39;;;;;;;3.72;2.78;;;7.70;99.90;;;;;;5073546;28;20021;-68
2023/12/04 01:15:05;;;;;;;3.28;2.90;;;7.80;99.90;;;;;;5073935;28;20075;-68
2023/12/04 01:17:31;;;;;;;3.28;2.92;;;7.70;99.90;;;;;;5073562;28;20091;-68
2023/12/04 01:19:57;;;;;;;4.07;3.00;;;7.80;99.90;;;;;;5073181;28;20605;-69
2023/12/04 01:22:23;;;;;;;3.30;2.90;;;7.80;99.90;;;;;;5073523;28;20031;-68
2023/12/04 01:24:49;;;;;;;4.88;2.55;;;7.80;99.90;;;;;;5073060;28;20051;-68
2023/12/04 01:27:15;;;;;;;4.32;2.55;;;7.80;99.90;;;;;;5073376;28;20028;-69
2023/12/04 01:29:40;;;;;;;3.60;2.60;;;7.80;99.90;;;;;;5073490;28;20025;-68
2023/12/04 01:32:06;;;;;;;4.07;2.83;;;7.90;99.90;;;;;;5073394;28;20471;-69
2023/12/04 01:34:32;;;;;;;2.95;2.70;;;7.90;99.90;;;;;;5073041;28;20396;-69
2023/12/04 01:36:57;;;;;;;2.90;2.60;;;7.90;99.90;;;;;;5073532;28;20024;-69
2023/12/04 01:39:23;;;;;;;3.15;2.72;;;7.90;99.90;;;;;;5073220;28;20399;-69
2023/12/04 01:41:49;;;;;;;3.55;2.40;;;7.90;99.90;;;;;;5073276;28;20104;-68
2023/12/04 01:44:15;;;;;;;3.33;2.80;;;8.00;99.90;;;;;;5073111;28;20111;-69
2023/12/04 01:46:42;;;;;;;2.72;2.53;;;8.00;99.90;;;;;;5072346;28;20095;-69
2023/12/04 01:49:08;;;;;;;3.65;2.90;;;8.10;99.90;;;;;;5072390;28;20063;-69
2023/12/04 01:51:34;;;;;;;3.63;2.90;;;8.30;99.90;;;;;;5072869;28;20045;-69
2023/12/04 01:54:02;;;;;;;4.18;2.80;;;8.40;99.90;;;;;;5073026;28;20376;-69
2023/12/04 01:56:29;;;;;;;3.90;2.80;;;8.50;99.90;;;;;;5072995;28;20025;-69
2023/12/04 01:58:55;;;;;;;3.40;2.63;;;8.50;99.90;;;;;;5073090;28;20550;-69
2023/12/04 02:01:22;;;;;;;3.75;2.78;;;8.60;99.90;;;;;;5072728;28;20108;-69
2023/12/04 02:03:47;;;;;;;4.40;2.50;;;8.70;99.90;;;;;;5072311;28;20032;-69
2023/12/04 02:06:14;;;;;;;4.32;2.67;;;8.70;99.90;;;;;;5072610;28;20031;-69
2023/12/04 02:08:41;;;;;;;3.85;2.70;;;8.70;99.90;;;;;;5072876;28;20112;-70
2023/12/04 02:11:07;;;;;;;4.43;2.70;;;8.80;99.90;;;;;;5072899;28;20128;-69
2023/12/04 02:13:32;;;;;;;4.07;2.78;;;8.80;99.90;;;;;;5071343;28;20523;-69
2023/12/04 02:16:03;;;;;;;4.05;2.97;;;8.80;99.90;;;;;;5072498;28;20063;-69
2023/12/04 02:18:29;;;;;;;3.47;2.90;;;8.70;99.90;;;;;;5072512;28;20383;-69
2023/12/04 02:20:55;;;;;;;3.72;2.80;;;8.60;99.90;;;;;;5072707;28;20475;-69
2023/12/04 02:23:20;;;;;;;4.18;2.90;;;8.50;99.90;;;;;;5072481;28;20077;-69
2023/12/04 02:25:46;;;;;;;2.63;2.42;;;8.50;99.90;;;;;;5072803;28;20082;-70
2023/12/04 02:28:15;;;;;;;3.70;2.75;;;8.50;99.90;;;;;;5072373;28;20031;-69
2023/12/04 02:30:44;;;;;;;4.35;2.85;;;8.50;99.90;;;;;;5072158;28;20032;-69
2023/12/04 02:33:13;;;;;;;4.63;2.58;;;8.40;99.90;;;;;;5072012;28;20024;-69
2023/12/04 02:35:40;;;;;;;3.40;2.75;;;8.40;99.90;;;;;;5071516;28;20021;-69
2023/12/04 02:38:07;;;;;;;3.78;2.58;;;8.40;99.90;;;;;;5072688;28;20028;-70
2023/12/04 02:40:33;;;;;;;4.32;2.80;;;8.30;99.90;;;;;;5071962;28;20491;-69
2023/12/04 02:42:59;;;;;;;2.90;2.60;;;8.30;99.90;;;;;;5072115;28;20032;-69
2023/12/04 02:45:24;;;;;;;4.68;2.50;;;8.30;99.90;;;;;;5072081;28;20024;-69
2023/12/04 02:47:50;;;;;;;3.63;2.60;;;8.20;99.90;;;;;;5070234;28;20445;-69
2023/12/04 02:50:16;;;;;;;3.28;2.60;;;8.20;99.90;;;;;;5072195;28;20431;-69
2023/12/04 02:52:41;;;;;;;2.90;2.60;;;8.20;99.90;;;;;;5072119;28;20410;-69
2023/12/04 02:55:07;;;;;;;2.97;2.15;;;8.20;99.90;;;;;;5072039;28;20020;-69
2023/12/04 02:57:33;;;;;;;2.63;2.33;;;8.30;99.90;;;;;;5071992;28;20407;-68
2023/12/04 02:59:59;;;;;;;3.05;2.45;;;8.30;99.90;;;;;;5071915;28;20028;-68
2023/12/04 03:02:24;;;;;;;3.17;2.20;;;8.30;99.90;;;;;;5071644;28;20039;-69
2023/12/04 03:04:50;;;;;;;2.95;2.60;;;8.30;99.90;;;;;;5071937;28;20036;-69
2023/12/04 03:07:16;;;;;;;3.13;2.60;;;8.30;99.90;;;;;;5071964;28;20413;-69
2023/12/04 03:09:42;;;;;;;3.15;2.70;;;8.30;99.90;;;;;;5072214;28;20074;-69
2023/12/04 03:12:07;;;;;;;4.70;2.88;;;8.30;99.90;;;;;;5071698;28;20028;-69
2023/12/04 03:14:33;;;;;;;3.70;3.10;;;8.20;99.90;;;;;;5071750;28;20031;-69
2023/12/04 03:16:58;;;;;;;4.15;2.80;;;8.20;99.90;;;;;;5071449;28;20031;-69
2023/12/04 03:19:24;;;;;;;3.35;2.78;;;8.10;99.90;;;;;;5071863;28;20090;-69
2023/12/04 03:21:50;;;;;;;3.38;2.65;;;8.10;99.90;;;;;;5071873;28;20025;-69
2023/12/04 03:24:15;;;;;;;2.85;2.55;;;8.10;99.90;;;;;;5072060;28;20032;-69
2023/12/04 03:26:41;;;;;;;2.85;2.55;;;8.10;99.90;;;;;;5071446;28;20526;-69
2023/12/04 03:29:07;;;;;;;2.83;2.50;;;8.10;99.90;;;;;;5071789;28;20425;-69
2023/12/04 03:31:34;;;;;;;3.58;2.65;;;8.10;99.90;;;;;;5071432;28;20502;-69
2023/12/04 03:33:59;;;;;;;3.85;2.50;;;8.10;99.90;;;;;;5071878;28;20029;-69
2023/12/04 03:36:25;;;;;;;4.25;2.45;;;8.10;99.90;;;;;;5071596;28;20020;-69
2023/12/04 03:38:51;;;;;;;5.40;2.58;;;8.10;99.90;;;;;;5071417;28;20041;-69
2023/12/04 03:41:17;;;;;;;3.00;2.50;;;8.00;99.90;;;;;;5071453;28;20028;-69
2023/12/04 03:43:42;;;;;;;4.28;2.70;;;8.00;99.90;;;;;;5071509;28;20029;-69
2023/12/04 03:46:08;;;;;;;3.45;2.75;;;8.10;99.90;;;;;;5071750;28;20334;-69
2023/12/04 03:48:34;;;;;;;4.10;2.50;;;8.20;99.90;;;;;;5074855;28;20039;-69
2023/12/04 03:51:00;;;;;;;3.05;2.40;;;8.30;99.90;;;;;;5075503;28;20035;-69
2023/12/04 03:53:26;;;;;;;2.90;2.50;;;8.40;99.90;;;;;;5075469;28;20044;-69
2023/12/04 03:55:52;;;;;;;3.30;2.63;;;8.40;99.90;;;;;;5075316;28;20020;-69
2023/12/04 03:58:18;;;;;;;3.17;2.47;;;8.40;99.90;;;;;;5075284;28;20371;-69
2023/12/04 04:00:44;;;;;;;3.33;2.35;;;8.50;99.90;;;;;;5075060;28;20047;-69
2023/12/04 04:03:10;;;;;;;3.42;2.45;;;8.40;99.90;;;;;;5075101;28;20035;-69
2023/12/04 04:05:35;;;;;;;4.32;2.70;;;8.50;99.90;;;;;;5075641;28;20054;-69
2023/12/04 04:08:02;;;;;;;2.45;2.25;;;8.40;99.90;;;;;;5075152;28;20103;-69
2023/12/04 04:10:27;;;;;;;3.25;2.40;;;8.50;99.90;;;;;;5075063;28;20032;-69
2023/12/04 04:12:53;;;;;;;2.60;2.40;;;8.30;99.90;;;;;;5074679;28;20021;-69
2023/12/04 04:15:19;;;;;;;2.58;2.38;;;8.20;99.90;;;;;;5074488;28;20029;-69
2023/12/04 04:17:44;;;;;;;3.40;2.78;;;8.10;99.90;;;;;;5074823;28;20092;-70
2023/12/04 04:20:12;;;;;;;3.15;2.45;;;8.00;99.90;;;;;;5074930;28;20123;-69
2023/12/04 04:22:39;;;;;;;3.95;2.50;;;7.90;99.90;;;;;;5074483;28;20043;-69
2023/12/04 04:25:07;;;;;;;3.75;2.33;;;7.90;99.90;;;;;;5074752;28;20028;-69
2023/12/04 04:27:32;;;;;;;3.05;2.25;;;7.90;99.90;;;;;;5074539;28;20158;-69
2023/12/04 04:29:58;;;;;;;4.35;2.33;;;7.80;99.90;;;;;;5074198;28;20060;-69
2023/12/04 04:32:24;;;;;;;2.83;2.47;;;7.80;99.90;;;;;;5074948;28;20024;-69
2023/12/04 04:34:50;;;;;;;2.72;2.38;;;7.80;99.90;;;;;;5074530;28;20031;-69
2023/12/04 04:37:15;;;;;;;2.92;2.33;;;7.80;99.90;;;;;;5074477;28;20433;-69
2023/12/04 04:39:41;;;;;;;2.78;2.42;;;7.80;99.90;;;;;;5074663;28;20032;-69
2023/12/04 04:42:06;;;;;;;3.53;2.42;;;7.80;99.90;;;;;;5074593;28;20021;-69
2023/12/04 04:44:32;;;;;;;4.07;2.58;;;7.70;99.90;;;;;;5074087;28;20025;-70
2023/12/04 04:46:58;;;;;;;3.40;2.45;;;7.70;99.90;;;;;;5074331;28;20490;-69
2023/12/04 04:49:23;;;;;;;4.22;2.33;;;7.70;99.90;;;;;;5074396;28;20465;-69
2023/12/04 04:51:49;;;;;;;2.92;2.60;;;7.70;99.90;;;;;;5073943;28;20068;-69
2023/12/04 04:54:15;;;;;;;2.63;2.40;;;7.70;99.90;;;;;;5074248;28;20429;-69
2023/12/04 04:56:40;;;;;;;2.95;2.50;;;7.70;99.90;;;;;;5074126;28;20502;-69
2023/12/04 04:59:06;;;;;;;2.40;2.20;;;7.80;99.90;;;;;;5073128;28;20047;-70
2023/12/04 05:01:32;;;;;;;3.08;2.58;;;7.70;99.90;;;;;;5074131;28;20489;-69
2023/12/04 05:03:57;;;;;;;3.63;2.60;;;7.70;99.90;;;;;;5074019;28;20395;-69
2023/12/04 05:06:23;;;;;;;3.88;2.50;;;7.80;99.90;;;;;;5073815;28;20067;-69
2023/12/04 05:08:52;;;;;;;3.00;2.40;;;7.70;99.90;;;;;;5073861;28;20039;-69
2023/12/04 05:11:18;;;;;;;3.30;2.28;;;7.80;99.90;;;;;;5074009;28;20035;-70
2023/12/04 05:13:47;;;;;;;2.67;2.33;;;7.80;99.90;;;;;;5073649;28;20021;-69
2023/12/04 05:16:13;;;;;;;3.78;2.67;;;7.80;99.90;;;;;;5073764;28;20096;-69
2023/12/04 05:18:39;;;;;;;3.03;2.50;;;7.80;99.90;;;;;;5074047;28;20162;-69
2023/12/04 05:21:14;;;;;;;4.00;2.80;;;7.70;99.90;;;;;;5073750;28;20111;-69
2023/12/04 05:23:40;;;;;;;3.67;2.60;;;7.70;99.90;;;;;;5073694;28;20025;-69
2023/12/04 05:26:06;;;;;;;2.90;2.67;;;7.80;99.90;;;;;;5073549;28;20051;-69
2023/12/04 05:28:32;;;;;;;2.70;2.50;;;7.70;99.90;;;;;;5073452;28;20391;-69
2023/12/04 05:30:58;;;;;;;3.13;2.53;;;7.70;99.90;;;;;;5073546;28;20546;-69
2023/12/04 05:33:24;;;;;;;4.35;2.80;;;7.70;99.90;;;;;;5073285;28;20535;-69
2023/12/04 05:35:51;;;;;;;3.22;2.67;;;7.70;99.90;;;;;;5073845;28;20082;-69
2023/12/04 05:38:17;;;;;;;3.25;2.50;;;7.70;99.90;;;;;;5073241;28;20437;-69
2023/12/04 05:40:43;;;;;;;4.10;2.78;;;7.70;99.90;;;;;;5073144;28;20032;-69
2023/12/04 05:43:09;;;;;;;3.22;2.63;;;7.80;99.90;;;;;;5073284;28;20033;-69
2023/12/04 05:45:34;;;;;;;3.88;2.63;;;8.00;99.90;;;;;;5073299;28;20028;-69
2023/12/04 05:48:00;;;;;;;2.88;2.50;;;8.00;99.90;;;;;;5072850;28;20039;-69
2023/12/04 05:50:26;;;;;;;3.65;2.67;;;8.20;99.90;;;;;;5073035;28;20056;-69
2023/12/04 05:52:51;;;;;;;3.88;2.88;;;8.30;99.90;;;;;;5072964;28;20345;-69
2023/12/04 05:55:17;;;;;;;3.35;2.67;;;8.30;99.90;;;;;;5073004;28;20028;-69
2023/12/04 05:57:44;;;;;;;2.78;2.47;;;8.40;99.90;;;;;;5072907;28;20452;-69
2023/12/04 06:00:13;;;;;;;4.00;2.60;;;8.40;99.90;;;;;;5072872;28;20517;-69
2023/12/04 06:02:43;;;;;;;3.80;2.45;;;8.50;99.90;;;;;;5072894;28;20028;-69
2023/12/04 06:05:09;;;;;;;3.28;2.47;;;8.50;99.90;;;;;;5072754;28;20353;-69
2023/12/04 06:07:36;;;;;;;3.90;2.53;;;8.60;99.90;;;;;;5073103;28;20025;-68
2023/12/04 06:10:04;;;;;;;3.05;2.50;;;8.50;99.90;;;;;;5072277;28;20017;-69
2023/12/04 06:12:30;;;;;;;3.65;2.60;;;8.40;99.90;;;;;;5072644;28;20016;-69
2023/12/04 06:14:56;;;;;;;4.43;2.80;;;8.40;99.90;;;;;;5072612;28;20044;-69
2023/12/04 06:17:22;;;;;;;4.28;2.95;;;8.30;99.90;;;;;;5072508;28;20033;-69
2023/12/04 06:19:47;;;;;;;4.60;2.60;;;8.20;99.90;;;;;;5072435;28;20032;-69
2023/12/04 06:22:13;;;;;;;3.60;2.35;;;8.30;99.90;;;;;;5072139;28;20101;-68
2023/12/04 06:24:40;;;;;;;2.85;2.20;;;8.30;99.90;;;;;;5072235;28;20028;-69
2023/12/04 06:27:08;;;;;;;5.80;2.75;;;8.30;99.90;;;;;;5072169;28;20024;-68
2023/12/04 06:29:35;;;;;;;4.65;2.30;;;8.30;99.90;;;;;;5072477;28;20116;-68
2023/12/04 06:32:01;;;;;;;4.55;2.60;;;8.30;99.90;;;;;;5072425;28;20368;-68
2023/12/04 06:34:27;;;;;;;3.58;2.33;;;8.30;99.90;;;;;;5071778;28;20399;-69
2023/12/04 06:36:54;;;;;;;3.65;2.13;;;8.40;99.90;;;;;;5071299;28;20025;-69
2023/12/04 06:39:21;;;;;;;4.85;2.28;;;8.40;99.90;;;;;;5072171;28;20548;-69
2023/12/04 06:41:48;;;;;;;2.97;2.08;;;8.50;99.90;;;;;;5072280;28;20033;-69
2023/12/04 06:44:14;;;;;;;4.43;2.35;;;8.50;99.90;;;;;;5072312;28;20036;-69
2023/12/04 06:46:45;;;;;;;5.43;2.50;;;8.50;99.90;;;;;;5072223;28;20028;-68
2023/12/04 06:49:13;;;;;;;4.65;2.60;;;8.50;99.90;;;;;;5072206;28;20032;-69
2023/12/04 06:51:39;;;;;;;5.57;2.65;;;8.50;99.90;;;;;;5071741;28;20048;-69
2023/12/04 06:54:07;;;;;;;5.60;2.78;;;8.60;99.90;;;;;;5071780;28;20082;-69
2023/12/04 06:56:33;;;;;;;4.65;2.25;;;8.60;99.90;;;;;;5071959;28;20028;-69
2023/12/04 06:58:58;;;;;;;5.97;2.35;;;8.70;99.90;;;;;;5072286;28;20036;-69
2023/12/04 07:01:24;;;;;;;3.65;2.47;;;8.70;99.90;;;;;;5072008;28;20108;-71
2023/12/04 07:03:50;;;;;;;5.68;2.47;;;8.70;99.90;;;;;;5071681;28;20059;-70
2023/12/04 07:06:15;;;;;;;4.07;2.50;;;8.70;99.90;;;;;;5072117;28;20024;-70
2023/12/04 07:08:41;;;;;;;6.80;2.60;;;8.80;99.90;;;;;;5071557;28;20021;-71
2023/12/04 07:11:08;;;;;;;5.00;2.50;;;8.80;99.90;;;;;;5071987;28;20502;-70
2023/12/04 07:13:34;;;;;;;5.25;2.83;;;8.80;99.90;;;;;;5072341;28;20146;-69
2023/12/04 07:15:59;;;;;;;5.53;2.70;;;8.90;99.90;;;;;;5071780;28;20032;-69
2023/12/04 07:18:26;;;;;;;5.00;2.60;;;8.90;99.90;;;;;;5071854;28;20020;-70
2023/12/04 07:20:51;;;;;;;6.15;2.47;;;8.90;99.90;;;;;;5071643;28;20045;-70
2023/12/04 07:23:17;;;;;;;8.68;2.53;;;9.00;99.90;;;;;;5075666;28;20036;-70
2023/12/04 07:25:43;;;;;;;7.00;2.58;;;9.00;99.90;;;;;;5076473;28;20024;-69
2023/12/04 07:28:08;;;;;;;5.05;2.38;;;9.00;99.90;;;;;;5075842;28;20027;-70
2023/12/04 07:30:34;;;;;;;6.32;2.33;;;9.10;99.90;;;;;;5075954;28;20017;-70
2023/12/04 07:32:59;;;;;;;5.57;2.45;;;9.10;99.90;;;;;;5076111;28;20082;-69
2023/12/04 07:35:26;;;;;;;7.85;2.92;;;9.10;99.90;;;;;;5073900;28;20024;-69
2023/12/04 07:37:52;;;;;;;8.07;2.50;;;9.30;99.90;;;;;;5074355;28;20043;-70
2023/12/04 07:40:18;;;;;;;4.13;2.22;;;9.50;99.90;;;;;;5075306;28;20119;-69
2023/12/04 07:42:44;;;;;;;6.20;2.55;;;9.60;99.90;;;;;;5075709;28;20108;-68
2023/12/04 07:45:10;;;;;;;6.05;2.40;;;9.80;99.90;;;;;;5075375;28;20032;-71
2023/12/04 07:47:36;;;;;;;9.57;2.95;;;9.90;99.90;;;;;;5075563;28;20029;-69
2023/12/04 07:50:02;;;;;;;8.20;2.70;;;10.00;99.90;;;;;;5075139;28;20025;-69
2023/12/04 07:52:28;;;;;;;6.13;2.90;;;10.30;99.90;;;;;;5074629;28;20052;-70
2023/12/04 07:54:54;;;;;;;7.05;2.60;;;10.30;99.90;;;;;;5075236;28;20024;-70
2023/12/04 07:57:19;;;;;;;8.25;2.65;;;10.30;99.90;;;;;;5075427;28;20033;-68
2023/12/04 07:59:45;;;;;;;6.10;2.45;;;10.30;99.90;;;;;;5074966;28;20032;-70
2023/12/04 08:02:10;;;;;;;5.72;2.33;;;10.40;99.90;;;;;;5075188;28;20020;-69
2023/12/04 08:04:36;;;;;;;5.38;2.20;;;10.40;99.90;;;;;;5074910;28;20031;-69
2023/12/04 08:07:02;;;;;;;6.60;2.45;;;10.40;99.90;;;;;;5074594;28;20059;-68
2023/12/04 08:09:27;;;;;;;6.30;2.72;;;10.30;99.90;;;;;;5073970;28;20020;-68
2023/12/04 08:11:53;;;;;;;5.32;2.72;;;10.20;99.90;;;;;;5074918;28;20395;-68
2023/12/04 08:14:19;;;;;;;7.15;2.85;;;10.10;99.90;;;;;;5075289;28;20017;-69
2023/12/04 08:16:44;;;;;;;9.30;2.85;;;10.00;99.90;;;;;;5074809;28;20025;-69
2023/12/04 08:19:10;;;;;;;9.73;2.85;;;10.00;99.90;;;;;;5074691;28;20103;-70
2023/12/04 08:21:36;;;;;;;7.80;2.92;;;10.00;99.90;;;;;;5073731;28;20036;-69
2023/12/04 08:24:01;;;;;;;6.90;2.70;;;9.90;99.90;;;;;;5074091;28;20016;-70
2023/12/04 08:26:27;;;;;;;5.72;2.78;;;10.00;99.90;;;;;;5074274;28;20398;-70
2023/12/04 08:28:53;;;;;;;6.40;2.78;;;9.90;99.90;;;;;;5074940;28;20036;-70
2023/12/04 08:31:19;;;;;;;8.07;3.10;;;9.90;99.90;;;;;;5074631;28;20028;-70
2023/12/04 08:33:45;;;;;;;9.27;2.97;;;10.00;99.90;;;;;;5073240;28;20020;-70
2023/12/04 08:36:11;;;;;;;8.27;2.85;;;10.00;99.90;;;;;;5074332;28;20039;-70
2023/12/04 08:38:37;;;;;;;11.45;3.08;;;10.10;99.90;;;;;;5074501;28;20474;-70
2023/12/04 08:41:04;;;;;;;8.38;2.55;;;10.30;99.90;;;;;;5074434;28;20082;-70
2023/12/04 08:43:30;;;;;;;7.43;2.90;;;10.20;99.90;;;;;;5074890;28;20017;-70
2023/12/04 08:45:56;;;;;;;10.10;2.95;;;10.10;99.90;;;;;;5074560;28;20517;-69
2023/12/04 08:48:21;;;;;;;8.73;3.10;;;10.10;99.90;;;;;;5073974;28;20021;-70
2023/12/04 08:50:48;;;;;;;10.90;3.60;;;10.10;99.90;;;;;;5073983;28;20041;-70
2023/12/04 08:53:14;;;;;;;10.52;3.30;;;10.10;99.90;;;;;;5074106;28;20048;-70
2023/12/04 08:55:39;;;;;;;6.88;3.13;;;10.10;99.90;;;;;;5074391;28;20024;-70
2023/12/04 08:58:05;;;;;;;11.75;3.60;;;10.20;99.90;;;;;;5073074;28;20024;-69
2023/12/04 09:00:32;;;;;;;11.20;3.17;;;10.20;99.90;;;;;;5073926;28;20428;-70
2023/12/04 09:02:57;;;;;;;13.07;3.53;;;10.20;99.90;;;;;;5073924;28;20490;-69
2023/12/04 09:05:23;;;;;;;13.75;4.20;;;10.20;99.90;;;;;;5073781;28;20021;-69
2023/12/04 09:07:49;;;;;;;13.45;3.60;;;10.30;99.90;;;;;;5074040;28;20033;-70
2023/12/04 09:10:14;;;;;;;14.88;3.85;;;10.60;99.90;;;;;;5073911;28;20104;-70
2023/12/04 09:12:40;;;;;;;16.10;4.28;;;10.60;99.90;;;;;;5074285;28;20166;-70
2023/12/04 09:15:07;;;;;;;16.67;3.78;;;10.70;99.90;;;;;;5073789;28;20024;-70
2023/12/04 09:17:33;;;;;;;15.82;3.58;;;10.80;99.90;;;;;;5072273;28;20115;-70
2023/12/04 09:19:59;;;;;;;15.35;3.47;;;10.90;99.90;;;;;;5073393;28;20045;-69
2023/12/04 09:22:24;;;;;;;15.10;4.15;;;11.00;99.90;;;;;;5073618;28;20021;-70
2023/12/04 09:24:50;;;;;;;13.23;3.80;;;11.10;99.90;;;;;;5073686;28;20025;-70
2023/12/04 09:27:16;;;;;;;13.35;3.20;;;11.20;99.90;;;;;;5073682;28;20020;-70
2023/12/04 09:29:42;;;;;;;17.50;3.75;;;11.20;99.90;;;;;;5073666;28;20493;-69
2023/12/04 09:32:09;;;;;;;15.93;4.13;;;11.20;99.90;;;;;;5073424;28;20020;-69
2023/12/04 09:34:35;;;;;;;18.60;5.13;;;11.30;99.90;;;;;;5073087;28;20070;-69
2023/12/04 09:37:01;;;;;;;22.30;4.97;;;11.40;99.90;;;;;;5073314;28;20024;-70
2023/12/04 09:39:27;;;;;;;20.50;4.85;;;11.60;99.90;;;;;;5073636;28;20532;-71
2023/12/04 09:41:54;;;;;;;27.25;6.05;;;11.90;99.90;;;;;;5073464;28;20017;-70
2023/12/04 09:44:22;;;;;;;21.45;4.97;;;12.10;99.90;;;;;;5072833;28;20376;-70
2023/12/04 09:46:49;;;;;;;18.65;4.25;;;12.20;99.90;;;;;;5071587;28;20483;-70
2023/12/04 09:49:16;;;;;;;20.60;4.82;;;12.40;99.90;;;;;;5072654;28;20395;-70
2023/12/04 09:51:42;;;;;;;15.02;4.07;;;12.40;99.90;;;;;;5072878;28;20048;-70
2023/12/04 09:54:09;;;;;;;20.98;4.35;;;12.50;99.90;;;;;;5072968;28;20411;-69
2023/12/04 09:56:36;;;;;;;19.58;4.28;;;12.60;99.90;;;;;;5072863;28;20031;-69
2023/12/04 09:59:05;;;;;;;17.70;3.70;;;12.50;99.90;;;;;;5072815;28;20108;-69
2023/12/04 10:01:31;;;;;;;22.98;4.90;;;12.40;99.90;;;;;;5072663;28;20497;-68
2023/12/04 10:03:58;;;;;;;23.95;5.20;;;12.30;99.90;;;;;;5072698;28;20436;-68
2023/12/04 10:06:28;;;;;;;23.92;5.32;;;12.20;99.90;;;;;;5072664;28;20036;-70
2023/12/04 10:08:58;;;;;;;23.58;5.72;;;12.10;99.90;;;;;;5073016;28;20029;-70
2023/12/04 10:11:24;;;;;;;22.55;5.20;;;12.00;99.90;;;;;;5073070;28;20036;-69
2023/12/04 10:13:50;;;;;;;18.95;4.10;;;11.80;99.90;;;;;;5072527;28;20039;-69
2023/12/04 10:16:35;;;;;;;23.70;5.40;;;11.70;99.90;;;;;;5072364;28;20095;-70
2023/12/04 10:19:22;;;;;;;27.00;6.72;;;11.60;99.90;;;;;;5072297;28;20430;-70
2023/12/04 10:21:49;;;;;;;27.77;6.47;;;11.60;99.90;;;;;;5072271;28;20028;-69
2023/12/04 10:24:41;;;;;;;32.85;6.72;;;11.60;99.90;;;;;;5072610;28;20048;-68
2023/12/04 10:27:11;;;;;;;25.52;5.78;;;11.60;99.90;;;;;;5070326;28;20047;-68
2023/12/04 10:29:47;;;;;;;27.15;5.85;;;11.50;99.90;;;;;;5071911;28;20055;-68
2023/12/04 10:32:13;;;;;;;29.23;6.38;;;11.60;99.90;;;;;;5072306;28;20036;-69
2023/12/04 10:34:42;;;;;;;32.47;6.50;;;11.70;99.90;;;;;;5072101;28;20436;-69
2023/12/04 10:37:11;;;;;;;25.60;5.60;;;11.70;99.90;;;;;;5071699;28;20021;-68
2023/12/04 10:39:50;;;;;;;27.77;5.45;;;11.60;99.90;;;;;;5072026;28;20074;-69
2023/12/04 10:42:32;;;;;;;24.60;5.10;;;11.60;99.90;;;;;;5071797;28;20418;-69
2023/12/04 10:44:59;;;;;;;28.75;5.80;;;11.60;99.90;;;;;;5071690;28;20039;-69
2023/12/04 10:47:25;;;;;;;30.23;5.95;;;11.60;99.90;;;;;;5072160;28;20028;-69
2023/12/04 10:49:52;;;;;;;24.17;5.40;;;11.60;99.90;;;;;;5071981;28;20055;-70
2023/12/04 10:52:19;;;;;;;27.42;6.00;;;11.70;99.90;;;;;;5071926;28;20040;-70
2023/12/04 10:54:46;;;;;;;27.23;6.03;;;11.70;99.90;;;;;;5072150;28;20033;-70
2023/12/04 10:57:16;;;;;;;58.03;7.65;;;11.90;99.90;;;;;;5071206;28;20092;-70
2023/12/04 10:59:43;;;;;;;29.02;6.72;;;11.90;99.90;;;;;;5071828;28;20067;-70
2023/12/04 11:02:13;;;;;;;30.77;6.70;;;12.00;99.90;;;;;;5071864;28;20013;-70
2023/12/04 11:04:39;;;;;;;36.83;7.07;;;12.10;99.90;;;;;;5071936;28;20032;-70
2023/12/04 11:07:08;;;;;;;30.05;6.72;;;12.10;99.90;;;;;;5072162;28;20471;-70
2023/12/04 11:09:35;;;;;;;33.08;7.18;;;12.20;99.90;;;;;;5071859;28;20070;-69
2023/12/04 11:12:08;;;;;;;30.70;7.57;;;12.30;99.90;;;;;;5071321;28;20744;-70
2023/12/04 11:14:50;;;;;;;34.23;8.17;;;12.30;99.90;;;;;;5071435;28;20021;-69
2023/12/04 11:17:18;;;;;;;34.40;7.00;;;12.40;99.90;;;;;;5071335;28;20055;-70
2023/12/04 11:20:01;;;;;;;29.90;7.45;;;12.50;99.90;;;;;;5071523;28;20045;-70
2023/12/04 11:22:28;;;;;;;31.15;7.47;;;12.60;99.90;;;;;;5071796;28;20032;-70
2023/12/04 11:24:55;;;;;;;30.92;7.47;;;12.80;99.90;;;;;;5071829;28;20021;-70
2023/12/04 11:27:22;;;;;;;35.00;7.95;;;12.90;99.90;;;;;;5071560;28;20505;-70
2023/12/04 11:29:49;;;;;;;25.00;5.97;;;13.00;99.90;;;;;;5071761;28;20040;-69
2023/12/04 11:32:16;;;;;;;24.35;6.20;;;13.10;99.90;;;;;;5071628;28;20016;-69
2023/12/04 11:35:02;;;;;;;25.77;6.00;;;13.20;99.90;;;;;;5071697;28;20021;-69
2023/12/04 11:37:28;;;;;;;24.17;5.60;;;13.40;99.90;;;;;;5071627;28;20454;-70
2023/12/04 11:39:54;;;;;;;23.40;5.78;;;13.20;99.90;;;;;;5071616;28;20066;-69
2023/12/04 11:42:23;;;;;;;24.83;5.95;;;13.30;99.90;;;;;;5071590;28;20025;-70
2023/12/04 11:44:55;;;;;;;22.92;5.32;;;13.40;99.90;;;;;;5071369;28;20044;-70
2023/12/04 11:47:21;;;;;;;21.23;5.68;;;13.50;99.90;;;;;;5071504;28;20429;-70
2023/12/04 11:49:47;;;;;;;26.42;6.82;;;13.50;99.90;;;;;;5065564;28;20043;-69
2023/12/04 11:52:12;;;;;;;23.73;5.88;;;13.50;99.90;;;;;;5071438;28;20419;-69
2023/12/04 11:55:03;;;;;;;26.27;6.93;;;13.30;99.90;;;;;;5071578;28;20066;-69
2023/12/04 11:57:34;;;;;;;23.25;5.78;;;13.10;99.90;;;;;;5071279;28;20098;-69
2023/12/04 12:00:16;;;;;;;22.25;5.53;;;12.90;99.90;;;;;;5070768;28;20039;-70
2023/12/04 12:02:53;;;;;;;23.08;5.40;;;12.80;99.90;;;;;;5071426;28;20052;-69
2023/12/04 12:05:23;;;;;;;18.63;4.40;;;12.80;99.90;;;;;;5071245;28;20028;-68
2023/12/04 12:07:49;;;;;;;16.48;4.45;;;12.70;99.90;;;;;;5072621;28;20032;-69
2023/12/04 12:10:16;;;;;;;20.90;5.20;;;12.70;99.90;;;;;;5073770;28;20024;-70
2023/12/04 12:12:45;;;;;;;21.10;5.43;;;12.60;99.90;;;;;;5073870;28;20025;-69
2023/12/04 12:15:12;;;;;;;25.90;5.32;;;12.60;99.90;;;;;;5074969;28;20056;-69
2023/12/04 12:17:39;;;;;;;24.50;6.18;;;12.60;99.90;;;;;;5074871;28;20025;-70
2023/12/04 12:20:13;;;;;;;28.10;5.63;;;12.60;99.90;;;;;;5075042;28;20055;-69
2023/12/04 12:22:43;;;;;;;22.75;5.32;;;12.50;99.90;;;;;;5074970;28;20046;-69
2023/12/04 12:25:10;;;;;;;20.30;5.07;;;12.50;99.90;;;;;;5074702;28;20052;-69
2023/12/04 12:27:36;;;;;;;23.60;5.53;;;12.40;99.90;;;;;;5074748;28;20025;-69
2023/12/04 12:30:04;;;;;;;26.85;5.38;;;12.40;99.90;;;;;;5074741;28;20040;-69
2023/12/04 12:32:35;;;;;;;28.55;5.60;;;12.40;99.90;;;;;;5074544;28;20055;-69
2023/12/04 12:35:01;;;;;;;31.83;6.15;;;12.30;99.90;;;;;;5074994;28;20032;-69
2023/12/04 12:37:27;;;;;;;31.70;5.85;;;12.40;99.90;;;;;;5074288;28;20036;-68
2023/12/04 12:39:53;;;;;;;14.75;4.75;;;12.40;99.90;;;;;;5074752;28;20047;-68
2023/12/04 12:42:26;;;;;;;13.60;3.50;;;12.30;99.90;;;;;;5074174;28;20383;-68
2023/12/04 12:44:53;;;;;;;16.02;3.95;;;12.20;99.90;;;;;;5074877;28;20035;-68
2023/12/04 12:47:18;;;;;;;22.33;4.57;;;12.10;99.90;;;;;;5074421;28;20021;-69
2023/12/04 12:49:45;;;;;;;21.85;5.13;;;12.20;99.90;;;;;;5074319;28;20025;-69